Merseburg Airport


Codes: EDAM/
Name: Merseburg Airport
City: Merseburg
Country: Germany
Elevation: 341 ft.

Photos at Merseburg Airport


   Photos courtesy of SpottingLog. You can add your own sightings and photos by signing up for a free trial today.



No photos found.

Weather at Merseburg Airport


Time (UTC)DescriptionTempratureWindCloud coverageVisibilityPressureHumidity
21-Feb-2024 03:00Overcast Clouds8°C13 mph, SW100%10000m1021hPa72%
21-Feb-2024 06:00Overcast Clouds7°C13 mph, SW100%10000m1020hPa76%
21-Feb-2024 09:00Overcast Clouds8°C13 mph, SW97%10000m1020hPa77%
21-Feb-2024 12:00Overcast Clouds10°C16 mph, SW98%10000m1018hPa67%
21-Feb-2024 15:00Overcast Clouds10°C11 mph, SW100%10000m1015hPa68%
21-Feb-2024 18:00Overcast Clouds9°C11 mph, SW100%10000m1013hPa71%
21-Feb-2024 21:00Overcast Clouds9°C13 mph, S100%10000m1011hPa64%
22-Feb-2024 00:00Light Rain8°C20 mph, SW100%10000m1007hPa80%
22-Feb-2024 03:00Light Rain8°C18 mph, SW100%10000m1004hPa84%
22-Feb-2024 06:00Light Rain9°C18 mph, SW100%10000m1001hPa86%
22-Feb-2024 09:00Light Rain9°C16 mph, SW100%10000m1000hPa85%
22-Feb-2024 12:00Light Rain10°C13 mph, SW100%10000m997hPa81%
22-Feb-2024 15:00Overcast Clouds10°C16 mph, SW100%10000m993hPa81%
22-Feb-2024 18:00Light Rain11°C18 mph, SW100%10000m991hPa82%
22-Feb-2024 21:00Light Rain11°C22 mph, SW100%10000m989hPa79%
23-Feb-2024 00:00Light Rain9°C25 mph, W100%10000m993hPa66%
23-Feb-2024 03:00Overcast Clouds6°C13 mph, SW100%10000m997hPa74%
23-Feb-2024 06:00Overcast Clouds5°C13 mph, SW98%10000m999hPa76%
23-Feb-2024 09:00Overcast Clouds7°C13 mph, SW100%10000m1001hPa67%
23-Feb-2024 12:00Overcast Clouds8°C11 mph, SW100%10000m1000hPa58%
23-Feb-2024 15:00Overcast Clouds8°C9 mph, SW100%10000m1000hPa60%
23-Feb-2024 18:00Overcast Clouds5°C7 mph, S100%10000m1001hPa73%
23-Feb-2024 21:00Overcast Clouds4°C7 mph, S100%10000m1000hPa78%
24-Feb-2024 00:00Overcast Clouds4°C7 mph, S100%10000m1000hPa80%
24-Feb-2024 03:00Overcast Clouds3°C7 mph, S100%10000m999hPa80%
24-Feb-2024 06:00Overcast Clouds3°C7 mph, S100%10000m1000hPa79%
24-Feb-2024 09:00Broken Clouds6°C13 mph, SW81%10000m1001hPa68%
24-Feb-2024 12:00Broken Clouds8°C13 mph, SW72%10000m1003hPa53%
24-Feb-2024 15:00Overcast Clouds8°C13 mph, SW91%10000m1004hPa56%
24-Feb-2024 18:00Broken Clouds5°C9 mph, SW51%10000m1006hPa72%
24-Feb-2024 21:00Few Clouds4°C7 mph, S24%10000m1008hPa79%
25-Feb-2024 00:00Broken Clouds4°C7 mph, S59%10000m1008hPa77%
25-Feb-2024 03:00Overcast Clouds4°C9 mph, SE100%10000m1007hPa75%
25-Feb-2024 06:00Broken Clouds3°C7 mph, SE56%10000m1007hPa77%
25-Feb-2024 09:00Scattered Clouds8°C9 mph, S26%10000m1007hPa62%
25-Feb-2024 12:00Scattered Clouds10°C11 mph, SW38%10000m1006hPa50%
25-Feb-2024 15:00Scattered Clouds9°C9 mph, W50%10000m1006hPa56%
25-Feb-2024 18:00Scattered Clouds5°C7 mph, W35%10000m1007hPa77%
25-Feb-2024 21:00Scattered Clouds3°C2 mph, SW43%10000m1007hPa78%
26-Feb-2024 00:00Scattered Clouds2°C4 mph, SE35%10000m1007hPa80%